Time;durP1;ratioP1;P1;durP2;ratioP2;P2;SDS_P1;SDS_P2;PMS_P1;PMS_P2;Temp;Humidity;BMP_temperature;BMP_pressure;BME280_temperature;BME280_humidity;BME280_pressure;Samples;Min_cycle;Max_cycle;Signal;HPM_P1;HPM_P2
2022/06/01 00:00:38;;;;;;;3.95;3.55;;;;;;;10.34;100.00;100553.81;4829508;29;20053;-84
2022/06/01 00:03:05;;;;;;;5.85;4.03;;;;;;;10.54;100.00;100548.09;4827549;29;20439;-83
2022/06/01 00:05:31;;;;;;;3.80;3.35;;;;;;;10.45;100.00;100548.31;4858715;29;20072;-83
2022/06/01 00:07:58;;;;;;;5.50;3.65;;;;;;;10.30;100.00;100556.56;4830697;29;20059;-84
2022/06/01 00:10:26;;;;;;;3.92;3.38;;;;;;;10.35;100.00;100555.56;4844351;29;20530;-84
2022/06/01 00:12:54;;;;;;;4.85;3.83;;;;;;;10.40;100.00;100537.81;4831771;29;20049;-84
2022/06/01 00:15:22;;;;;;;5.13;3.92;;;;;;;10.35;100.00;100545.00;4830747;29;20076;-84
2022/06/01 00:17:49;;;;;;;4.38;3.97;;;;;;;10.27;100.00;100544.28;4861517;29;20052;-85
2022/06/01 00:20:16;;;;;;;4.55;3.95;;;;;;;10.24;100.00;100546.97;4877750;29;20080;-85
2022/06/01 00:22:43;;;;;;;5.35;4.07;;;;;;;10.26;100.00;100546.97;4859474;29;20046;-84
2022/06/01 00:25:14;;;;;;;6.30;4.00;;;;;;;10.30;100.00;100553.91;4861665;29;20041;-84
2022/06/01 00:27:41;;;;;;;4.78;4.03;;;;;;;10.34;100.00;100553.81;4840232;29;20045;-84
2022/06/01 04:07:14;;;;;;;11.43;8.43;;;;;;;10.06;100.00;100532.34;4925933;23;20066;-81
2022/06/01 04:09:45;;;;;;;10.07;8.63;;;;;;;10.15;100.00;100532.16;4885335;29;20044;-79
2022/06/01 04:12:11;;;;;;;9.68;8.07;;;;;;;10.08;100.00;100530.53;4901399;29;20050;-79
2022/06/01 04:14:39;;;;;;;8.45;7.07;;;;;;;10.06;100.00;100529.72;4881597;29;20043;-80
2022/06/01 04:17:05;;;;;;;10.27;7.72;;;;;;;10.10;100.00;100530.53;4896343;29;20094;-79
2022/06/01 04:19:32;;;;;;;9.75;8.73;;;;;;;10.17;100.00;100529.50;4909712;29;20103;-80
2022/06/01 04:21:59;;;;;;;12.27;8.38;;;;;;;10.26;100.00;100529.34;4885613;29;20461;-81
2022/06/01 04:24:28;;;;;;;10.20;9.13;;;;;;;10.39;100.00;100522.03;4900584;29;20046;-80
2022/06/01 04:26:55;;;;;;;10.20;8.82;;;;;;;10.47;100.00;100521.84;4921076;29;20460;-82
2022/06/01 04:29:21;;;;;;;9.25;8.13;;;;;;;10.51;100.00;100523.50;4897922;29;20040;-79
2022/06/01 04:31:48;;;;;;;9.98;8.98;;;;;;;10.54;100.00;100532.25;4884615;29;20056;-79
2022/06/01 04:34:16;;;;;;;11.30;9.20;;;;;;;10.57;100.00;100533.94;4887437;29;20048;-80
2022/06/01 04:36:42;;;;;;;10.20;9.02;;;;;;;10.66;100.00;100536.38;4891932;29;20047;-79
2022/06/01 04:39:09;;;;;;;9.45;8.45;;;;;;;10.74;100.00;100530.91;4888185;29;20055;-82
2022/06/01 04:41:36;;;;;;;9.75;8.65;;;;;;;10.85;100.00;100537.72;4917036;29;20401;-80
2022/06/01 04:44:03;;;;;;;10.35;9.05;;;;;;;10.91;100.00;100537.53;4883166;29;20102;-80
2022/06/01 04:46:30;;;;;;;10.88;9.07;;;;;;;10.95;100.00;100543.66;4896354;29;20067;-82
2022/06/01 04:48:58;;;;;;;10.10;8.63;;;;;;;11.00;100.00;100539.09;4893013;29;20055;-80
2022/06/01 04:51:25;;;;;;;10.68;9.57;;;;;;;11.08;100.00;100534.50;4898761;29;20493;-80
2022/06/01 04:53:51;;;;;;;12.20;8.55;;;;;;;11.07;100.00;100534.53;4908947;29;20055;-81
2022/06/01 04:56:18;;;;;;;9.85;8.82;;;;;;;11.08;100.00;100536.28;4885325;29;20039;-80
2022/06/01 04:58:45;;;;;;;10.55;9.45;;;;;;;11.17;100.00;100538.69;4894185;29;20055;-80
2022/06/01 05:01:11;;;;;;;9.52;8.52;;;;;;;11.22;100.00;100534.16;4885822;29;20043;-80
2022/06/01 05:03:38;;;;;;;10.20;9.10;;;;;;;11.34;100.00;100531.19;4897087;29;20102;-81
2022/06/01 05:06:05;;;;;;;11.75;8.50;;;;;;;11.45;100.00;100537.09;4896321;29;20037;-80
2022/06/01 05:08:31;;;;;;;9.68;8.52;;;;;;;11.56;100.00;100535.03;4894081;29;20044;-82
2022/06/01 05:10:58;;;;;;;8.40;7.50;;;;;;;11.65;100.00;100527.75;4895367;29;20490;-81
2022/06/01 05:13:25;;;;;;;8.80;7.78;;;;;;;11.74;100.00;100528.38;4899920;29;20040;-80
2022/06/01 05:15:54;;;;;;;8.57;7.30;;;;;;;11.77;100.00;100528.31;4896427;29;20099;-80
2022/06/01 05:18:21;;;;;;;9.93;8.93;;;;;;;11.87;100.00;100526.31;4899754;29;20044;-82
2022/06/01 05:20:48;;;;;;;10.07;8.27;;;;;;;11.89;100.00;100527.13;4903189;29;20110;-80
2022/06/01 05:23:17;;;;;;;7.93;7.05;;;;;;;11.95;100.00;100526.09;4888272;29;20047;-83
2022/06/01 05:25:45;;;;;;;8.75;7.43;;;;;;;12.04;100.00;100528.47;4897021;29;20046;-81
2022/06/01 05:28:13;;;;;;;8.52;7.30;;;;;;;12.21;100.00;100526.19;4919281;29;20040;-80
2022/06/01 05:30:39;;;;;;;8.45;7.65;;;;;;;12.36;100.00;100524.88;4896474;29;20051;-80
2022/06/01 05:33:06;;;;;;;7.78;6.97;;;;;;;12.48;100.00;100524.50;4884941;29;20054;-80
2022/06/01 05:35:32;;;;;;;7.70;6.22;;;;;;;12.67;100.00;100519.50;4891663;29;20437;-81
2022/06/01 05:38:00;;;;;;;6.57;5.97;;;;;;;12.71;100.00;100525.59;4896126;29;20051;-82
2022/06/01 05:40:30;;;;;;;7.57;6.15;;;;;;;12.82;100.00;100524.31;4897415;29;20047;-81
2022/06/01 05:42:57;;;;;;;6.90;6.13;;;;;;;12.96;100.00;100519.44;4896812;29;20058;-80
2022/06/01 05:45:24;;;;;;;7.85;7.00;;;;;;;13.16;100.00;100521.44;4878213;29;20051;-80
2022/06/01 05:47:51;;;;;;;7.03;6.32;;;;;;;13.52;100.00;100519.34;4890226;29;20051;-82
2022/06/01 05:50:18;;;;;;;6.10;5.50;;;;;;;13.82;100.00;100529.81;4930680;29;20040;-80
2022/06/01 05:52:45;;;;;;;6.35;5.00;;;;;;;14.39;100.00;100527.72;4889521;29;20055;-81
2022/06/01 05:55:12;;;;;;;6.80;5.05;;;;;;;15.33;100.00;100531.06;4884160;29;20042;-83
2022/06/01 05:57:39;;;;;;;5.38;4.88;;;;;;;16.43;100.00;100532.38;4898689;29;20504;-80
2022/06/01 06:00:10;;;;;;;4.22;3.80;;;;;;;16.82;96.27;100531.47;4901069;29;20115;-81
2022/06/01 06:02:38;;;;;;;5.20;4.80;;;;;;;16.88;89.95;100539.16;4897010;29;20498;-80
2022/06/01 06:06:11;;;;;;;5.53;5.05;;;;;;;16.41;92.67;100541.38;4879656;29;20119;-81
2022/06/01 06:07:52;;;;;;;4.60;4.20;;;;;;;15.68;96.73;100543.75;4902066;29;20585;-81
2022/06/01 06:10:20;;;;;;;4.85;4.45;;;;;;;15.37;100.00;100535.28;4897890;29;20052;-81
2022/06/01 06:12:47;;;;;;;5.50;4.93;;;;;;;15.55;100.00;100545.16;4899390;29;20044;-81
2022/06/01 06:15:13;;;;;;;5.22;4.72;;;;;;;15.89;100.00;100535.72;4900946;29;20131;-81
2022/06/01 06:17:40;;;;;;;5.68;5.18;;;;;;;15.92;100.00;100539.16;4887097;29;20044;-82
2022/06/01 06:20:08;;;;;;;5.20;4.70;;;;;;;16.16;100.00;100537.19;4890750;29;20401;-81
2022/06/01 06:22:35;;;;;;;5.28;4.50;;;;;;;16.48;97.62;100534.81;4893795;29;20056;-80
2022/06/01 06:25:02;;;;;;;5.03;4.47;;;;;;;16.77;94.63;100538.81;4900615;29;20521;-81
2022/06/01 06:27:28;;;;;;;5.20;4.70;;;;;;;16.97;92.97;100537.84;4886719;29;20058;-81
2022/06/01 06:29:55;;;;;;;5.00;4.50;;;;;;;17.03;95.26;100535.75;4885398;29;20059;-80
2022/06/01 09:47:51;;;;;;;3.75;3.35;;;;;;;19.79;59.35;100516.19;4841970;29;20132;-78
2022/06/01 09:50:28;;;;;;;5.53;3.10;;;;;;;19.57;57.69;100528.19;4839900;29;20062;-80
2022/06/01 09:53:02;;;;;;;4.60;3.67;;;;;;;19.39;58.07;100515.84;4842429;29;20041;-77
2022/06/01 09:55:30;;;;;;;4.55;2.83;;;;;;;19.33;57.87;100525.09;4863852;29;20428;-77
2022/06/01 09:58:09;;;;;;;3.47;3.08;;;;;;;19.68;58.26;100511.47;4840617;29;20049;-77
2022/06/01 10:06:25;;;;;;;3.60;2.88;;;;;;;21.27;53.48;100501.31;4847877;29;20045;-78
2022/06/01 10:09:03;;;;;;;2.58;2.35;;;;;;;21.74;52.06;100503.44;4831832;29;20052;-78
2022/06/01 10:11:34;;;;;;;4.15;2.90;;;;;;;21.93;47.42;100497.66;4859295;29;20498;-77
2022/06/01 10:14:05;;;;;;;2.60;2.20;;;;;;;21.87;46.52;100493.56;4847547;29;20068;-77
2022/06/01 10:16:50;;;;;;;3.05;2.78;;;;;;;22.06;45.57;100495.81;4872473;29;20132;-78
2022/06/01 10:19:23;;;;;;;2.45;2.20;;;;;;;21.80;45.23;100481.53;4863444;29;20053;-79
2022/06/01 10:21:57;;;;;;;3.90;2.35;;;;;;;22.28;44.02;100484.44;4849398;29;20051;-78
2022/06/01 10:24:29;;;;;;;3.85;2.60;;;;;;;22.48;41.62;100486.53;4847197;29;20045;-77
2022/06/01 10:26:58;;;;;;;2.80;2.50;;;;;;;22.82;46.07;100481.34;4850211;29;20068;-79
2022/06/01 10:29:46;;;;;;;6.38;5.93;;;;;;;22.83;42.58;100476.81;4832085;29;20131;-78
2022/06/01 10:32:27;;;;;;;4.57;2.90;;;;;;;22.49;44.01;100490.06;4862175;29;20049;-78
2022/06/01 10:35:37;;;;;;;3.90;2.70;;;;;;;21.89;42.20;100478.19;4874341;29;20132;-78
2022/06/01 10:38:17;;;;;;;4.13;3.20;;;;;;;21.54;43.92;100480.66;4840671;29;20061;-79
2022/06/01 10:41:00;;;;;;;3.35;3.00;;;;;;;21.13;45.15;100479.88;4857072;29;20045;-78
2022/06/01 10:43:42;;;;;;;5.85;2.78;;;;;;;20.76;42.73;100475.09;4850566;29;20055;-78
2022/06/01 10:46:40;;;;;;;2.47;2.10;;;;;;;21.01;43.93;100468.13;4854244;29;20072;-78
2022/06/01 10:49:29;;;;;;;5.22;3.00;;;;;;;20.45;44.90;100465.53;4844939;29;20049;-77
2022/06/01 10:52:08;;;;;;;3.72;2.78;;;;;;;20.37;45.52;100472.31;4867609;29;20080;-78
2022/06/01 10:54:42;;;;;;;3.50;2.17;;;;;;;20.52;45.01;100466.00;4860016;29;20406;-77
2022/06/01 10:57:10;;;;;;;8.77;2.58;;;;;;;20.83;46.71;100446.03;4864856;29;20037;-78
2022/06/01 10:59:38;;;;;;;2.67;2.03;;;;;;;21.49;44.35;100458.59;4863335;29;20076;-78
2022/06/01 11:02:31;;;;;;;3.20;2.20;;;;;;;22.18;42.17;100460.00;4848836;29;20053;-78
2022/06/01 11:05:31;;;;;;;3.33;2.30;;;;;;;22.36;41.11;100459.63;4880017;29;20051;-78
2022/06/01 11:08:23;;;;;;;2.72;1.90;;;;;;;22.27;38.42;100454.91;4846269;29;20501;-77
2022/06/01 11:10:58;;;;;;;3.15;1.80;;;;;;;22.21;39.97;100445.47;4857905;29;20101;-78
2022/06/01 11:13:55;;;;;;;2.60;1.83;;;;;;;22.75;39.12;100450.47;4879751;29;20525;-77
2022/06/01 11:16:40;;;;;;;2.63;1.90;;;;;;;23.14;36.20;100445.78;4873742;29;20056;-77
2022/06/01 11:19:24;;;;;;;2.53;1.83;;;;;;;23.03;35.87;100439.34;4861283;29;20049;-78
2022/06/01 11:22:22;;;;;;;2.42;1.90;;;;;;;23.17;37.50;100443.69;4860830;29;20037;-78
2022/06/01 11:25:08;;;;;;;2.15;1.50;;;;;;;22.56;37.02;100452.81;4889243;29;20036;-77
2022/06/01 11:27:46;;;;;;;2.10;1.80;;;;;;;22.10;37.51;100448.06;4864484;29;20041;-77
2022/06/01 11:30:21;;;;;;;3.90;1.92;;;;;;;21.14;38.13;100452.91;4844783;29;20049;-77
2022/06/01 11:33:04;;;;;;;2.83;2.10;;;;;;;20.97;39.46;100450.50;4845766;29;20042;-77
2022/06/01 11:35:38;;;;;;;3.58;1.85;;;;;;;21.07;40.67;100452.47;4844466;29;20042;-79
2022/06/01 11:38:25;;;;;;;2.53;1.73;;;;;;;21.13;40.52;100447.66;4830591;29;20049;-77
2022/06/01 11:41:03;;;;;;;2.22;1.65;;;;;;;21.18;40.44;100442.81;4858699;29;20036;-78
2022/06/01 11:43:40;;;;;;;2.10;1.65;;;;;;;21.40;43.29;100448.47;4848079;29;20041;-77
2022/06/01 11:46:16;;;;;;;1.52;1.40;;;;;;;20.82;38.49;100433.56;4862645;29;20071;-79
2022/06/01 11:48:52;;;;;;;2.25;1.90;;;;;;;21.14;41.06;100430.56;4847042;29;20041;-78
2022/06/01 11:51:21;;;;;;;2.58;1.70;;;;;;;20.67;37.15;100442.63;4863345;29;20411;-76
2022/06/01 11:54:08;;;;;;;1.60;1.50;;;;;;;20.31;38.39;100441.38;4878498;29;20593;-79
2022/06/01 11:56:51;;;;;;;1.88;1.70;;;;;;;20.30;43.49;100441.47;4845635;29;20467;-78
2022/06/01 11:59:27;;;;;;;3.28;1.73;;;;;;;20.14;41.65;100439.75;4871291;29;20057;-78
2022/06/01 12:01:58;;;;;;;2.15;1.80;;;;;;;19.95;43.88;100463.34;4875580;29;20068;-78
2022/06/01 12:04:54;;;;;;;2.17;1.55;;;;;;;19.56;42.80;100458.56;4867389;29;20105;-78
2022/06/01 12:07:27;;;;;;;2.53;1.60;;;;;;;19.09;43.97;100451.59;4847971;29;20045;-81
2022/06/01 12:10:04;;;;;;;1.63;1.35;;;;;;;18.68;42.45;100480.75;4858538;29;20057;-78
2022/06/01 12:12:34;;;;;;;2.95;2.10;;;;;;;18.14;47.17;100510.44;4901941;29;20060;-79
2022/06/01 12:15:12;;;;;;;3.75;1.88;;;;;;;17.20;57.08;100545.59;4851466;29;20049;-78
2022/06/01 12:17:58;;;;;;;6.75;2.72;;;;;;;16.03;68.81;100589.28;4862665;29;20045;-81
2022/06/01 12:20:43;;;;;;;7.25;2.83;;;;;;;15.18;76.30;100607.94;4831846;29;20052;-78
2022/06/01 12:28:52;;;;;;;6.22;2.30;;;;;;;13.68;89.60;100580.72;4829763;29;20064;-79
2022/06/01 12:31:27;;;;;;;4.78;3.10;;;;;;;13.55;95.50;100571.47;4832083;29;20055;-80
2022/06/01 12:34:01;;;;;;;2.65;2.40;;;;;;;13.63;100.00;100558.81;4845390;29;20049;-78
2022/06/01 12:37:07;;;;;;;3.42;2.50;;;;;;;13.83;100.00;100550.13;4861682;29;20041;-80
2022/06/01 12:39:41;;;;;;;2.97;2.50;;;;;;;14.41;100.00;100555.09;4845706;29;20056;-80
2022/06/01 12:42:12;;;;;;;5.25;2.67;;;;;;;14.96;100.00;100548.50;4876250;29;20048;-80
2022/06/01 12:44:40;;;;;;;4.40;2.38;;;;;;;15.74;100.00;100551.47;4845267;29;20064;-78
2022/06/01 12:47:07;;;;;;;3.13;2.20;;;;;;;16.49;100.00;100564.09;4846360;29;20045;-78
2022/06/01 12:49:41;;;;;;;3.42;1.80;;;;;;;16.91;95.03;100554.16;4861055;29;20047;-80
2022/06/01 12:52:37;;;;;;;3.35;2.10;;;;;;;17.37;99.43;100553.63;4829457;29;20046;-79
2022/06/01 12:55:13;;;;;;;3.47;2.20;;;;;;;17.54;89.58;100552.75;4814838;29;20069;-79
2022/06/01 12:57:53;;;;;;;3.15;2.00;;;;;;;17.54;89.24;100549.22;4861076;29;20052;-80
2022/06/01 13:00:43;;;;;;;5.43;2.28;;;;;;;17.45;91.27;100535.41;4844226;29;20038;-80
2022/06/01 13:03:12;;;;;;;4.03;2.85;;;;;;;17.16;84.14;100544.03;4833340;29;20045;-78
2022/06/01 13:05:41;;;;;;;3.88;1.73;;;;;;;16.93;88.92;100530.94;4863986;29;20080;-79
2022/06/01 13:08:17;;;;;;;2.33;2.00;;;;;;;16.68;87.73;100542.75;4864630;29;20135;-81
2022/06/01 13:10:56;;;;;;;2.45;2.25;;;;;;;16.36;87.76;100546.91;4848933;29;20117;-78
2022/06/01 13:13:29;;;;;;;4.53;2.38;;;;;;;16.05;88.42;100547.44;4865457;29;20049;-80
2022/06/01 13:16:01;;;;;;;2.80;2.25;;;;;;;15.92;94.73;100547.13;4833569;29;20472;-81
2022/06/01 13:18:33;;;;;;;2.90;2.33;;;;;;;15.71;97.08;100548.06;4864315;29;20041;-80
2022/06/01 13:21:14;;;;;;;3.17;2.45;;;;;;;15.58;96.94;100555.69;4850551;29;20300;-81
2022/06/01 13:23:54;;;;;;;2.50;2.30;;;;;;;15.65;100.00;100569.66;4875438;29;20048;-79
2022/06/01 13:26:28;;;;;;;3.50;2.30;;;;;;;15.62;100.00;100575.09;4881751;29;20328;-78
2022/06/01 13:29:07;;;;;;;3.95;2.40;;;;;;;15.62;99.93;100583.94;4884931;29;20048;-79
2022/06/01 13:31:36;;;;;;;2.67;2.05;;;;;;;15.80;100.00;100581.44;4856745;29;20052;-80
2022/06/01 13:34:05;;;;;;;2.95;2.00;;;;;;;15.83;100.00;100586.63;4862361;29;20067;-79
2022/06/01 13:36:39;;;;;;;3.03;2.28;;;;;;;15.95;99.55;100576.31;4835311;29;20041;-81
2022/06/01 13:39:12;;;;;;;2.53;2.20;;;;;;;15.97;93.35;100577.09;4863795;29;20546;-80
2022/06/01 13:41:58;;;;;;;2.90;2.35;;;;;;;15.89;91.92;100589.00;4860437;29;20049;-78
2022/06/01 13:44:47;;;;;;;2.30;2.10;;;;;;;16.16;95.53;100573.63;4847609;29;20053;-82
2022/06/01 13:47:22;;;;;;;2.75;2.00;;;;;;;16.29;94.31;100567.66;4832793;29;20041;-79
2022/06/01 13:49:59;;;;;;;2.70;2.22;;;;;;;16.31;91.17;100572.91;4883096;29;20056;-81
2022/06/01 13:52:28;;;;;;;2.40;2.20;;;;;;;16.27;86.02;100584.66;4863325;29;20049;-81
2022/06/01 13:55:34;;;;;;;3.10;2.40;;;;;;;16.31;93.40;100602.25;4845471;29;20416;-82
2022/06/01 13:58:10;;;;;;;2.65;1.85;;;;;;;16.08;87.59;100605.09;4768561;29;20050;-81
2022/06/01 14:00:43;;;;;;;2.20;1.80;;;;;;;15.81;81.30;100594.72;4780572;29;20058;-81
2022/06/01 14:03:15;;;;;;;2.75;2.00;;;;;;;15.65;88.24;100586.50;4825835;29;20483;-79
2022/06/01 14:05:48;;;;;;;3.05;1.90;;;;;;;15.38;81.61;100584.94;4860391;29;20656;-78
2022/06/01 14:08:47;;;;;;;2.17;1.98;;;;;;;15.76;83.53;100588.69;4863902;29;20463;-80
2022/06/01 14:11:24;;;;;;;2.28;2.08;;;;;;;16.03;85.83;100578.63;4836080;29;20049;-79
2022/06/01 14:13:52;;;;;;;3.28;2.17;;;;;;;16.42;84.45;100573.31;4857825;29;20045;-81
2022/06/01 14:16:19;;;;;;;2.97;2.30;;;;;;;16.08;78.53;100576.63;4859149;29;20806;-78
2022/06/01 14:18:54;;;;;;;2.30;2.00;;;;;;;16.01;77.06;100576.03;4844495;29;20604;-78
2022/06/01 14:21:22;;;;;;;3.58;2.50;;;;;;;16.19;80.50;100571.69;4843285;29;20053;-80
2022/06/01 14:23:49;;;;;;;2.85;2.15;;;;;;;16.27;76.89;100566.88;4838580;29;20053;-79
2022/06/01 14:29:04;;;;;;;3.17;1.92;;;;;;;16.62;72.87;100564.38;4866653;29;20049;-79
2022/06/01 14:31:33;;;;;;;2.15;1.92;;;;;;;17.13;75.47;100563.72;4829391;29;20105;-80
2022/06/01 14:34:01;;;;;;;2.67;1.80;;;;;;;17.39;64.40;100562.41;4843590;29;20110;-79
2022/06/01 14:36:29;;;;;;;2.60;1.60;;;;;;;17.67;62.89;100571.72;4845135;29;20049;-78
2022/06/01 14:38:57;;;;;;;1.98;1.70;;;;;;;18.00;61.04;100564.66;4844067;29;20052;-78
2022/06/01 14:41:30;;;;;;;2.10;1.70;;;;;;;18.08;61.57;100576.75;4852102;29;20045;-78
2022/06/01 14:44:00;;;;;;;1.95;1.80;;;;;;;17.88;58.42;100559.06;4865689;29;20048;-77
2022/06/01 14:46:28;;;;;;;2.97;1.63;;;;;;;17.56;55.57;100568.72;4850218;29;20408;-79
2022/06/01 14:48:55;;;;;;;1.90;1.38;;;;;;;17.79;58.63;100567.56;4856057;29;20053;-79
2022/06/01 14:51:29;;;;;;;2.40;1.60;;;;;;;17.83;61.21;100569.16;4860942;29;20404;-82
2022/06/01 14:53:59;;;;;;;1.55;1.45;;;;;;;17.94;64.23;100578.34;4843718;29;20460;-80
2022/06/01 14:56:25;;;;;;;1.50;1.40;;;;;;;17.83;57.50;100569.16;4842395;29;20060;-79
2022/06/01 14:58:52;;;;;;;1.65;1.40;;;;;;;17.83;54.18;100580.72;4842581;29;20057;-77
2022/06/01 15:01:41;;;;;;;1.55;1.45;;;;;;;17.82;57.72;100581.63;4877872;29;20058;-79
2022/06/01 15:04:14;;;;;;;1.40;1.30;;;;;;;17.96;56.71;100578.25;4880464;29;20585;-78
2022/06/01 15:06:43;;;;;;;1.55;1.30;;;;;;;18.21;55.18;100583.16;4864824;29;20037;-79
2022/06/01 15:09:12;;;;;;;1.90;1.70;;;;;;;18.28;56.57;100572.06;4849397;29;20478;-78
2022/06/01 15:11:40;;;;;;;1.90;1.10;;;;;;;18.48;56.58;100562.09;4849519;29;20052;-78
2022/06/01 15:14:08;;;;;;;1.60;1.50;;;;;;;18.45;51.23;100570.28;4847061;29;20053;-78
2022/06/01 15:16:34;;;;;;;1.40;1.30;;;;;;;18.52;53.08;100569.00;4865219;29;20563;-79
2022/06/01 15:19:04;;;;;;;1.92;1.45;;;;;;;18.63;53.57;100571.94;4822164;29;20072;-78
2022/06/01 15:21:30;;;;;;;1.50;1.40;;;;;;;18.79;53.76;100567.50;4855911;29;20052;-79
2022/06/01 15:23:58;;;;;;;2.47;1.70;;;;;;;18.65;53.32;100579.88;4832180;29;20060;-79
2022/06/01 15:26:25;;;;;;;1.98;1.65;;;;;;;18.70;53.25;100585.88;4849491;29;20049;-78
2022/06/01 15:28:52;;;;;;;1.45;1.35;;;;;;;18.63;56.38;100582.66;4862684;29;20041;-80
2022/06/01 15:39:38;;;;;;;3.35;1.92;;;;;;;19.08;54.86;100587.25;4850578;29;20045;-79
2022/06/01 15:42:10;;;;;;;2.72;2.17;;;;;;;18.90;52.13;100584.78;4863661;29;20049;-78
2022/06/01 15:44:37;;;;;;;1.80;1.70;;;;;;;18.94;54.90;100589.88;4864797;29;20067;-80
2022/06/01 15:47:06;;;;;;;2.53;1.70;;;;;;;18.74;55.10;100593.66;4851560;29;20045;-80
2022/06/01 15:49:36;;;;;;;2.15;1.50;;;;;;;18.82;54.54;100587.88;4844878;29;20048;-79
2022/06/01 15:52:12;;;;;;;3.58;1.70;;;;;;;19.21;56.79;100591.94;4830399;29;20059;-80
2022/06/01 15:54:39;;;;;;;2.05;1.80;;;;;;;19.25;54.72;100586.31;4857856;29;20069;-79
2022/06/01 15:57:10;;;;;;;1.90;1.70;;;;;;;19.15;53.94;100586.91;4864971;29;20096;-78
2022/06/01 15:59:40;;;;;;;2.88;1.70;;;;;;;19.01;53.97;100583.22;4841026;29;20700;-79
2022/06/01 16:02:13;;;;;;;1.73;1.63;;;;;;;19.14;52.58;100586.06;4844896;29;20049;-79
2022/06/01 16:04:43;;;;;;;2.47;1.80;;;;;;;19.12;52.95;100583.47;4846823;29;20056;-79
2022/06/01 16:07:15;;;;;;;2.25;1.92;;;;;;;19.02;53.53;100590.31;4862038;29;20410;-79
2022/06/01 16:09:41;;;;;;;1.92;1.83;;;;;;;18.60;53.58;100587.31;4853552;29;20108;-79
2022/06/01 16:12:08;;;;;;;2.83;1.70;;;;;;;18.28;56.88;100588.09;4864546;29;20480;-79
2022/06/01 16:14:35;;;;;;;1.65;1.55;;;;;;;18.03;56.53;100589.50;4834432;29;20049;-79
2022/06/01 16:17:02;;;;;;;2.22;2.03;;;;;;;17.88;57.79;100588.47;4848777;29;20463;-79
2022/06/01 16:19:29;;;;;;;2.35;1.88;;;;;;;17.69;58.17;100584.03;4846988;29;20040;-78
2022/06/01 16:21:56;;;;;;;2.45;1.70;;;;;;;17.49;58.05;100577.97;4860160;29;20045;-79
2022/06/01 16:24:22;;;;;;;2.17;1.88;;;;;;;17.38;59.49;100576.72;4851510;29;20041;-81
2022/06/01 16:26:50;;;;;;;1.70;1.60;;;;;;;17.30;61.30;100586.91;4845249;29;20518;-80
2022/06/01 16:29:17;;;;;;;3.15;1.92;;;;;;;17.15;62.76;100585.88;4845299;29;20049;-80
2022/06/01 16:31:46;;;;;;;1.95;1.75;;;;;;;17.10;64.52;100587.03;4860039;29;20041;-81
2022/06/01 16:34:15;;;;;;;2.08;1.88;;;;;;;17.09;63.69;100588.84;4846567;29;20448;-80
2022/06/01 16:36:42;;;;;;;2.35;1.60;;;;;;;16.92;63.24;100588.78;4846626;29;20446;-80
2022/06/01 16:39:11;;;;;;;2.25;1.60;;;;;;;16.84;66.56;100586.47;4874327;29;20464;-80
2022/06/01 16:41:58;;;;;;;2.05;1.80;;;;;;;16.66;63.46;100591.78;4851673;29;20037;-80
2022/06/01 16:44:25;;;;;;;2.88;1.90;;;;;;;16.59;68.03;100592.06;4879454;29;20041;-80
2022/06/01 16:46:52;;;;;;;2.45;1.90;;;;;;;16.67;71.82;100597.03;4850272;29;20055;-80
2022/06/01 16:49:19;;;;;;;1.88;1.73;;;;;;;16.46;74.68;100612.22;4844684;29;20081;-81
2022/06/01 16:51:46;;;;;;;1.80;1.70;;;;;;;16.32;77.61;100623.53;4846148;29;20056;-80
2022/06/01 16:54:12;;;;;;;2.05;1.85;;;;;;;16.29;80.13;100636.09;4828913;29;20546;-79
2022/06/01 16:56:39;;;;;;;2.38;2.08;;;;;;;16.08;75.38;100658.38;4845740;29;20109;-79
2022/06/01 16:59:11;;;;;;;2.38;2.13;;;;;;;15.72;76.81;100659.91;4850138;29;20103;-80
2022/06/01 17:01:38;;;;;;;2.22;2.03;;;;;;;15.44;87.51;100668.09;4864899;29;20048;-79
2022/06/01 17:04:07;;;;;;;2.60;2.20;;;;;;;15.24;82.20;100670.69;4856499;29;20515;-78
2022/06/01 17:06:34;;;;;;;3.05;2.75;;;;;;;14.63;85.13;100681.88;4847546;29;20048;-79
2022/06/01 17:09:02;;;;;;;3.45;2.72;;;;;;;14.52;87.78;100672.56;4861776;29;20044;-79
2022/06/01 17:11:31;;;;;;;2.75;2.30;;;;;;;14.25;89.21;100685.00;4864224;29;20045;-79
2022/06/01 17:14:03;;;;;;;2.85;2.55;;;;;;;14.11;91.56;100671.34;4867210;29;20091;-80
2022/06/01 17:16:32;;;;;;;4.45;3.22;;;;;;;13.97;89.56;100661.22;4864538;29;20056;-79
2022/06/01 17:19:00;;;;;;;3.15;2.42;;;;;;;13.85;86.64;100659.81;4854336;29;20045;-78
2022/06/01 17:21:26;;;;;;;2.20;2.00;;;;;;;13.62;85.61;100665.91;4853482;29;20047;-79
2022/06/01 17:23:53;;;;;;;2.13;1.92;;;;;;;13.31;84.81;100655.41;4846864;29;20049;-78
2022/06/01 17:26:20;;;;;;;3.22;2.75;;;;;;;13.27;88.73;100645.81;4856024;29;20040;-79
2022/06/01 17:28:46;;;;;;;2.33;2.13;;;;;;;13.21;84.80;100638.06;4861416;29;20042;-78
2022/06/01 17:31:16;;;;;;;2.65;1.90;;;;;;;13.02;86.42;100642.16;4858465;29;20107;-78
2022/06/01 17:33:44;;;;;;;2.83;2.10;;;;;;;12.94;90.33;100640.59;4836178;29;20068;-80
2022/06/01 17:36:11;;;;;;;2.22;2.00;;;;;;;12.92;89.36;100644.22;4862581;29;20049;-78
2022/06/01 17:38:37;;;;;;;2.00;1.80;;;;;;;12.93;90.06;100649.47;4854177;29;20052;-79
2022/06/01 17:41:04;;;;;;;2.38;2.17;;;;;;;12.98;91.73;100664.38;4862356;29;20077;-79
2022/06/01 17:43:31;;;;;;;2.22;2.03;;;;;;;13.02;91.98;100656.28;4881125;29;20454;-79
2022/06/01 17:45:58;;;;;;;2.58;2.25;;;;;;;13.01;91.02;100662.50;4846776;29;20301;-79
2022/06/01 17:48:28;;;;;;;3.08;2.60;;;;;;;13.08;91.62;100665.84;4828141;29;20041;-79
2022/06/01 17:50:55;;;;;;;4.00;2.97;;;;;;;13.20;90.26;100669.03;4846990;29;20116;-78
2022/06/01 17:53:23;;;;;;;2.67;2.47;;;;;;;13.15;92.95;100673.56;4860464;29;20052;-79
2022/06/01 17:55:50;;;;;;;4.03;2.47;;;;;;;12.85;94.57;100671.81;4858720;29;20566;-79
2022/06/01 17:58:17;;;;;;;2.75;2.20;;;;;;;12.76;95.16;100672.97;4876218;29;20109;-79
2022/06/01 18:00:45;;;;;;;2.70;2.50;;;;;;;12.66;96.78;100669.72;4842312;29;20415;-79
2022/06/01 18:03:13;;;;;;;3.15;2.30;;;;;;;12.67;97.73;100673.22;4845085;29;20104;-78
2022/06/01 18:05:41;;;;;;;2.28;2.03;;;;;;;12.53;99.19;100678.09;4858933;29;20041;-79
2022/06/01 18:08:12;;;;;;;2.50;2.30;;;;;;;12.41;100.00;100679.28;4845971;29;20052;-79
2022/06/01 18:10:39;;;;;;;2.60;2.40;;;;;;;12.32;100.00;100677.75;4867848;29;20052;-80
2022/06/01 18:13:06;;;;;;;2.63;2.25;;;;;;;12.32;100.00;100685.69;4864559;29;20045;-81
2022/06/01 18:15:33;;;;;;;3.10;2.10;;;;;;;12.31;100.00;100683.09;4858147;29;20049;-80
2022/06/01 18:18:01;;;;;;;2.55;2.35;;;;;;;12.34;100.00;100678.56;4854577;29;20080;-82
2022/06/01 18:20:34;;;;;;;3.25;2.30;;;;;;;12.30;100.00;100682.22;4850066;29;20784;-79
2022/06/01 18:23:01;;;;;;;2.50;2.30;;;;;;;12.32;100.00;100679.53;4847453;29;20048;-80
2022/06/01 18:25:28;;;;;;;2.60;2.40;;;;;;;12.28;100.00;100684.06;4877220;29;20072;-80
2022/06/01 18:27:54;;;;;;;2.42;2.22;;;;;;;12.20;100.00;100670.16;4864408;29;20052;-79
2022/06/01 18:30:23;;;;;;;2.90;2.40;;;;;;;12.26;100.00;100695.56;4852479;29;20192;-79
2022/06/01 18:32:49;;;;;;;3.20;2.90;;;;;;;12.21;100.00;100692.19;4862267;29;20045;-81
2022/06/01 18:35:17;;;;;;;3.55;2.70;;;;;;;12.16;100.00;100692.31;4867482;29;20048;-80
2022/06/01 18:37:44;;;;;;;3.00;2.70;;;;;;;12.15;100.00;100690.56;4864979;29;20176;-79
2022/06/01 18:40:11;;;;;;;3.50;2.85;;;;;;;12.13;100.00;100689.75;4855536;29;20093;-80
2022/06/01 18:42:42;;;;;;;2.80;2.60;;;;;;;12.00;100.00;100680.38;4855059;29;20057;-81
2022/06/01 18:45:09;;;;;;;4.03;2.40;;;;;;;11.93;100.00;100676.16;4863929;29;20064;-81
2022/06/01 18:47:36;;;;;;;3.08;2.78;;;;;;;11.85;100.00;100681.63;4862206;29;20045;-80
2022/06/01 18:50:04;;;;;;;3.35;3.00;;;;;;;11.80;100.00;100679.13;4862184;29;20053;-79
2022/06/01 18:52:31;;;;;;;2.60;2.40;;;;;;;11.79;100.00;100674.69;4848848;29;20052;-80
2022/06/01 18:54:59;;;;;;;2.75;2.40;;;;;;;11.81;100.00;100672.03;4847922;29;20056;-79
2022/06/01 18:57:26;;;;;;;3.30;2.83;;;;;;;11.86;100.00;100666.66;4871585;29;20071;-80